sensor_id;sensor_type;location;lat;lon;timestamp;P1;durP1;ratioP1;P2;durP2;ratioP2
12715;SDS011;6422;49.938;9.124;2023-04-08T00:00:52;2.17;;;1.30;;
12715;SDS011;6422;49.938;9.124;2023-04-08T00:03:17;4.40;;;2.60;;
12715;SDS011;6422;49.938;9.124;2023-04-08T00:05:42;3.43;;;2.40;;
12715;SDS011;6422;49.938;9.124;2023-04-08T00:08:07;3.90;;;2.00;;
12715;SDS011;6422;49.938;9.124;2023-04-08T00:10:33;3.50;;;1.40;;
12715;SDS011;6422;49.938;9.124;2023-04-08T00:12:58;2.43;;;1.63;;
12715;SDS011;6422;49.938;9.124;2023-04-08T00:15:24;2.87;;;2.23;;
12715;SDS011;6422;49.938;9.124;2023-04-08T00:17:50;3.20;;;1.87;;
12715;SDS011;6422;49.938;9.124;2023-04-08T00:20:15;2.73;;;1.70;;
12715;SDS011;6422;49.938;9.124;2023-04-08T00:22:40;1.77;;;1.43;;
12715;SDS011;6422;49.938;9.124;2023-04-08T00:25:06;2.42;;;1.70;;
12715;SDS011;6422;49.938;9.124;2023-04-08T00:27:34;3.60;;;2.30;;
12715;SDS011;6422;49.938;9.124;2023-04-08T00:29:59;2.13;;;1.30;;
12715;SDS011;6422;49.938;9.124;2023-04-08T00:32:26;4.50;;;2.03;;
12715;SDS011;6422;49.938;9.124;2023-04-08T00:34:51;3.83;;;1.80;;
12715;SDS011;6422;49.938;9.124;2023-04-08T00:37:16;1.90;;;1.60;;
12715;SDS011;6422;49.938;9.124;2023-04-08T00:39:41;3.33;;;2.50;;
12715;SDS011;6422;49.938;9.124;2023-04-08T00:42:07;2.50;;;2.23;;
12715;SDS011;6422;49.938;9.124;2023-04-08T00:44:32;2.00;;;1.80;;
12715;SDS011;6422;49.938;9.124;2023-04-08T00:46:57;5.67;;;1.97;;
12715;SDS011;6422;49.938;9.124;2023-04-08T00:49:22;3.47;;;2.40;;
12715;SDS011;6422;49.938;9.124;2023-04-08T00:51:47;5.67;;;1.83;;
12715;SDS011;6422;49.938;9.124;2023-04-08T00:54:12;3.58;;;1.75;;
12715;SDS011;6422;49.938;9.124;2023-04-08T00:56:38;2.85;;;2.03;;
12715;SDS011;6422;49.938;9.124;2023-04-08T00:59:03;2.60;;;2.07;;
12715;SDS011;6422;49.938;9.124;2023-04-08T01:01:48;3.00;;;1.80;;
12715;SDS011;6422;49.938;9.124;2023-04-08T01:06:48;2.80;;;1.90;;
12715;SDS011;6422;49.938;9.124;2023-04-08T01:09:17;2.10;;;1.90;;
12715;SDS011;6422;49.938;9.124;2023-04-08T01:11:43;2.87;;;2.13;;
12715;SDS011;6422;49.938;9.124;2023-04-08T01:14:09;2.67;;;1.83;;
12715;SDS011;6422;49.938;9.124;2023-04-08T01:16:37;1.87;;;1.33;;
12715;SDS011;6422;49.938;9.124;2023-04-08T01:19:03;3.60;;;2.30;;
12715;SDS011;6422;49.938;9.124;2023-04-08T01:21:30;2.50;;;1.83;;
12715;SDS011;6422;49.938;9.124;2023-04-08T01:23:58;2.80;;;1.60;;
12715;SDS011;6422;49.938;9.124;2023-04-08T01:26:26;3.00;;;1.57;;
12715;SDS011;6422;49.938;9.124;2023-04-08T01:28:52;2.00;;;1.40;;
12715;SDS011;6422;49.938;9.124;2023-04-08T01:31:18;5.80;;;2.30;;
12715;SDS011;6422;49.938;9.124;2023-04-08T01:33:44;2.87;;;1.73;;
12715;SDS011;6422;49.938;9.124;2023-04-08T01:36:10;3.27;;;2.17;;
12715;SDS011;6422;49.938;9.124;2023-04-08T01:38:35;5.87;;;2.40;;
12715;SDS011;6422;49.938;9.124;2023-04-08T01:41:01;2.20;;;1.70;;
12715;SDS011;6422;49.938;9.124;2023-04-08T01:43:27;2.80;;;1.70;;
12715;SDS011;6422;49.938;9.124;2023-04-08T01:45:53;2.63;;;1.70;;
12715;SDS011;6422;49.938;9.124;2023-04-08T01:48:22;2.90;;;2.10;;
12715;SDS011;6422;49.938;9.124;2023-04-08T01:50:48;3.37;;;2.10;;
12715;SDS011;6422;49.938;9.124;2023-04-08T01:53:13;6.23;;;1.97;;
12715;SDS011;6422;49.938;9.124;2023-04-08T01:55:39;1.43;;;1.13;;
12715;SDS011;6422;49.938;9.124;2023-04-08T01:58:04;2.47;;;1.43;;
12715;SDS011;6422;49.938;9.124;2023-04-08T02:00:31;2.50;;;1.73;;
12715;SDS011;6422;49.938;9.124;2023-04-08T02:02:58;2.70;;;1.30;;
12715;SDS011;6422;49.938;9.124;2023-04-08T02:05:23;2.67;;;1.37;;
12715;SDS011;6422;49.938;9.124;2023-04-08T02:07:48;1.20;;;1.10;;
12715;SDS011;6422;49.938;9.124;2023-04-08T02:10:14;3.80;;;1.30;;
12715;SDS011;6422;49.938;9.124;2023-04-08T02:12:39;2.30;;;1.33;;
12715;SDS011;6422;49.938;9.124;2023-04-08T02:15:05;2.20;;;1.30;;
12715;SDS011;6422;49.938;9.124;2023-04-08T02:17:46;2.67;;;1.67;;
12715;SDS011;6422;49.938;9.124;2023-04-08T02:20:25;1.93;;;1.73;;
12715;SDS011;6422;49.938;9.124;2023-04-08T02:25:21;1.53;;;0.90;;
12715;SDS011;6422;49.938;9.124;2023-04-08T02:27:47;3.23;;;1.40;;
12715;SDS011;6422;49.938;9.124;2023-04-08T02:30:15;2.50;;;1.33;;
12715;SDS011;6422;49.938;9.124;2023-04-08T02:32:41;7.93;;;1.80;;
12715;SDS011;6422;49.938;9.124;2023-04-08T02:35:06;2.60;;;1.70;;
12715;SDS011;6422;49.938;9.124;2023-04-08T02:37:33;1.87;;;1.17;;
12715;SDS011;6422;49.938;9.124;2023-04-08T02:39:59;1.93;;;1.20;;
12715;SDS011;6422;49.938;9.124;2023-04-08T02:42:24;1.93;;;1.57;;
12715;SDS011;6422;49.938;9.124;2023-04-08T02:44:49;2.53;;;2.10;;
12715;SDS011;6422;49.938;9.124;2023-04-08T02:47:15;4.33;;;2.80;;
12715;SDS011;6422;49.938;9.124;2023-04-08T02:49:40;2.30;;;1.97;;
12715;SDS011;6422;49.938;9.124;2023-04-08T02:52:05;3.00;;;2.03;;
12715;SDS011;6422;49.938;9.124;2023-04-08T02:54:31;3.57;;;2.10;;
12715;SDS011;6422;49.938;9.124;2023-04-08T02:56:57;3.50;;;2.30;;
12715;SDS011;6422;49.938;9.124;2023-04-08T02:59:22;8.02;;;2.80;;
12715;SDS011;6422;49.938;9.124;2023-04-08T03:01:47;2.73;;;2.00;;
12715;SDS011;6422;49.938;9.124;2023-04-08T03:04:12;2.50;;;1.83;;
12715;SDS011;6422;49.938;9.124;2023-04-08T03:06:37;4.10;;;2.43;;
12715;SDS011;6422;49.938;9.124;2023-04-08T03:09:03;4.53;;;2.20;;
12715;SDS011;6422;49.938;9.124;2023-04-08T03:11:29;2.03;;;1.70;;
12715;SDS011;6422;49.938;9.124;2023-04-08T03:13:55;3.10;;;2.00;;
12715;SDS011;6422;49.938;9.124;2023-04-08T03:16:20;3.90;;;2.40;;
12715;SDS011;6422;49.938;9.124;2023-04-08T03:18:45;2.80;;;2.43;;
12715;SDS011;6422;49.938;9.124;2023-04-08T03:21:10;3.77;;;2.90;;
12715;SDS011;6422;49.938;9.124;2023-04-08T03:23:35;3.65;;;2.58;;
12715;SDS011;6422;49.938;9.124;2023-04-08T03:26:00;9.68;;;2.72;;
12715;SDS011;6422;49.938;9.124;2023-04-08T03:28:26;8.70;;;3.37;;
12715;SDS011;6422;49.938;9.124;2023-04-08T03:30:51;7.90;;;3.60;;
12715;SDS011;6422;49.938;9.124;2023-04-08T03:33:16;4.83;;;3.50;;
12715;SDS011;6422;49.938;9.124;2023-04-08T03:35:41;4.97;;;2.57;;
12715;SDS011;6422;49.938;9.124;2023-04-08T03:38:06;6.63;;;2.97;;
12715;SDS011;6422;49.938;9.124;2023-04-08T03:40:32;4.77;;;2.93;;
12715;SDS011;6422;49.938;9.124;2023-04-08T03:42:57;4.93;;;2.60;;
12715;SDS011;6422;49.938;9.124;2023-04-08T03:45:22;11.03;;;3.47;;
12715;SDS011;6422;49.938;9.124;2023-04-08T03:47:48;7.57;;;4.20;;
12715;SDS011;6422;49.938;9.124;2023-04-08T03:50:13;5.70;;;3.17;;
12715;SDS011;6422;49.938;9.124;2023-04-08T03:52:38;55.13;;;4.67;;
12715;SDS011;6422;49.938;9.124;2023-04-08T03:55:03;13.27;;;3.87;;
12715;SDS011;6422;49.938;9.124;2023-04-08T03:57:28;21.90;;;5.60;;
12715;SDS011;6422;49.938;9.124;2023-04-08T03:59:54;11.63;;;5.50;;
12715;SDS011;6422;49.938;9.124;2023-04-08T04:02:19;4.85;;;3.20;;
12715;SDS011;6422;49.938;9.124;2023-04-08T04:04:44;21.37;;;4.50;;
12715;SDS011;6422;49.938;9.124;2023-04-08T04:07:09;28.70;;;5.20;;
12715;SDS011;6422;49.938;9.124;2023-04-08T04:09:34;28.33;;;3.33;;
12715;SDS011;6422;49.938;9.124;2023-04-08T04:12:00;4.47;;;2.60;;
12715;SDS011;6422;49.938;9.124;2023-04-08T04:14:25;48.30;;;6.10;;
12715;SDS011;6422;49.938;9.124;2023-04-08T04:16:50;37.55;;;3.78;;
12715;SDS011;6422;49.938;9.124;2023-04-08T04:19:15;54.60;;;3.38;;
12715;SDS011;6422;49.938;9.124;2023-04-08T04:21:42;33.93;;;4.50;;
12715;SDS011;6422;49.938;9.124;2023-04-08T04:24:07;16.90;;;3.40;;
12715;SDS011;6422;49.938;9.124;2023-04-08T04:26:32;19.35;;;3.80;;
12715;SDS011;6422;49.938;9.124;2023-04-08T04:28:57;59.27;;;2.43;;
12715;SDS011;6422;49.938;9.124;2023-04-08T04:31:23;4.55;;;2.85;;
12715;SDS011;6422;49.938;9.124;2023-04-08T04:33:51;28.03;;;3.17;;
12715;SDS011;6422;49.938;9.124;2023-04-08T04:36:17;7.60;;;3.80;;
12715;SDS011;6422;49.938;9.124;2023-04-08T04:38:42;2.90;;;2.23;;
12715;SDS011;6422;49.938;9.124;2023-04-08T04:41:08;8.63;;;3.00;;
12715;SDS011;6422;49.938;9.124;2023-04-08T04:43:33;12.73;;;4.17;;
12715;SDS011;6422;49.938;9.124;2023-04-08T04:45:58;24.13;;;5.15;;
12715;SDS011;6422;49.938;9.124;2023-04-08T04:48:23;5.47;;;3.30;;
12715;SDS011;6422;49.938;9.124;2023-04-08T04:50:58;6.43;;;2.73;;
12715;SDS011;6422;49.938;9.124;2023-04-08T04:53:23;10.47;;;3.60;;
12715;SDS011;6422;49.938;9.124;2023-04-08T04:55:49;4.57;;;3.00;;
12715;SDS011;6422;49.938;9.124;2023-04-08T04:58:14;8.83;;;4.10;;
12715;SDS011;6422;49.938;9.124;2023-04-08T05:00:40;15.57;;;3.70;;
12715;SDS011;6422;49.938;9.124;2023-04-08T05:03:05;5.80;;;3.10;;
12715;SDS011;6422;49.938;9.124;2023-04-08T05:05:30;24.53;;;4.73;;
12715;SDS011;6422;49.938;9.124;2023-04-08T05:07:55;4.80;;;2.30;;
12715;SDS011;6422;49.938;9.124;2023-04-08T05:10:21;6.40;;;3.53;;
12715;SDS011;6422;49.938;9.124;2023-04-08T05:12:46;7.93;;;3.13;;
12715;SDS011;6422;49.938;9.124;2023-04-08T05:15:11;6.10;;;2.80;;
12715;SDS011;6422;49.938;9.124;2023-04-08T05:17:36;4.60;;;3.00;;
12715;SDS011;6422;49.938;9.124;2023-04-08T05:20:01;3.90;;;2.73;;
12715;SDS011;6422;49.938;9.124;2023-04-08T05:22:27;4.80;;;3.03;;
12715;SDS011;6422;49.938;9.124;2023-04-08T05:24:52;3.43;;;2.20;;
12715;SDS011;6422;49.938;9.124;2023-04-08T05:27:17;2.67;;;2.47;;
12715;SDS011;6422;49.938;9.124;2023-04-08T05:29:42;4.50;;;2.67;;
12715;SDS011;6422;49.938;9.124;2023-04-08T05:32:07;5.57;;;2.78;;
12715;SDS011;6422;49.938;9.124;2023-04-08T05:34:33;7.60;;;3.40;;
12715;SDS011;6422;49.938;9.124;2023-04-08T05:36:58;3.80;;;2.42;;
12715;SDS011;6422;49.938;9.124;2023-04-08T05:39:23;4.93;;;3.08;;
12715;SDS011;6422;49.938;9.124;2023-04-08T05:41:48;4.40;;;2.60;;
12715;SDS011;6422;49.938;9.124;2023-04-08T05:44:13;6.75;;;4.05;;
12715;SDS011;6422;49.938;9.124;2023-04-08T05:46:39;6.30;;;2.20;;
12715;SDS011;6422;49.938;9.124;2023-04-08T05:49:04;4.60;;;2.80;;
12715;SDS011;6422;49.938;9.124;2023-04-08T05:51:29;3.67;;;1.80;;
12715;SDS011;6422;49.938;9.124;2023-04-08T05:53:55;5.67;;;3.40;;
12715;SDS011;6422;49.938;9.124;2023-04-08T05:56:20;4.47;;;2.37;;
12715;SDS011;6422;49.938;9.124;2023-04-08T05:58:45;8.37;;;3.83;;
12715;SDS011;6422;49.938;9.124;2023-04-08T06:01:11;5.20;;;2.57;;
12715;SDS011;6422;49.938;9.124;2023-04-08T06:03:36;6.93;;;3.13;;
12715;SDS011;6422;49.938;9.124;2023-04-08T06:06:01;6.80;;;3.20;;
12715;SDS011;6422;49.938;9.124;2023-04-08T06:08:26;3.13;;;2.10;;
12715;SDS011;6422;49.938;9.124;2023-04-08T06:10:51;2.03;;;1.83;;
12715;SDS011;6422;49.938;9.124;2023-04-08T06:13:17;4.47;;;2.57;;
12715;SDS011;6422;49.938;9.124;2023-04-08T06:15:42;6.27;;;3.53;;
12715;SDS011;6422;49.938;9.124;2023-04-08T06:18:07;3.00;;;2.47;;
12715;SDS011;6422;49.938;9.124;2023-04-08T06:20:32;17.58;;;3.20;;
12715;SDS011;6422;49.938;9.124;2023-04-08T06:22:57;4.17;;;3.00;;
12715;SDS011;6422;49.938;9.124;2023-04-08T06:25:23;7.00;;;3.90;;
12715;SDS011;6422;49.938;9.124;2023-04-08T06:27:48;26.33;;;4.80;;
12715;SDS011;6422;49.938;9.124;2023-04-08T06:30:13;11.53;;;4.87;;
12715;SDS011;6422;49.938;9.124;2023-04-08T06:32:39;5.70;;;3.53;;
12715;SDS011;6422;49.938;9.124;2023-04-08T06:35:04;6.40;;;3.40;;
12715;SDS011;6422;49.938;9.124;2023-04-08T06:37:29;6.50;;;3.70;;
12715;SDS011;6422;49.938;9.124;2023-04-08T06:39:54;14.80;;;5.23;;
12715;SDS011;6422;49.938;9.124;2023-04-08T06:42:20;10.70;;;4.13;;
12715;SDS011;6422;49.938;9.124;2023-04-08T06:44:45;5.05;;;3.20;;
12715;SDS011;6422;49.938;9.124;2023-04-08T06:47:10;8.03;;;3.83;;
12715;SDS011;6422;49.938;9.124;2023-04-08T06:49:35;4.30;;;2.73;;
12715;SDS011;6422;49.938;9.124;2023-04-08T06:52:01;10.10;;;5.30;;
12715;SDS011;6422;49.938;9.124;2023-04-08T06:54:26;10.13;;;4.50;;
12715;SDS011;6422;49.938;9.124;2023-04-08T06:56:51;10.37;;;4.37;;
12715;SDS011;6422;49.938;9.124;2023-04-08T06:59:17;18.92;;;5.18;;
12715;SDS011;6422;49.938;9.124;2023-04-08T07:01:42;21.83;;;6.43;;
12715;SDS011;6422;49.938;9.124;2023-04-08T07:04:07;11.33;;;4.20;;
12715;SDS011;6422;49.938;9.124;2023-04-08T07:06:32;9.47;;;4.10;;
12715;SDS011;6422;49.938;9.124;2023-04-08T07:08:57;6.03;;;3.40;;
12715;SDS011;6422;49.938;9.124;2023-04-08T07:11:22;11.10;;;4.30;;
12715;SDS011;6422;49.938;9.124;2023-04-08T07:13:48;7.85;;;3.95;;
12715;SDS011;6422;49.938;9.124;2023-04-08T07:16:13;7.03;;;4.07;;
12715;SDS011;6422;49.938;9.124;2023-04-08T07:18:38;3.33;;;2.30;;
12715;SDS011;6422;49.938;9.124;2023-04-08T07:21:05;3.40;;;2.80;;
12715;SDS011;6422;49.938;9.124;2023-04-08T07:23:30;6.43;;;3.63;;
12715;SDS011;6422;49.938;9.124;2023-04-08T07:26:00;4.20;;;2.95;;
12715;SDS011;6422;49.938;9.124;2023-04-08T07:28:25;4.43;;;2.83;;
12715;SDS011;6422;49.938;9.124;2023-04-08T07:30:50;4.20;;;2.72;;
12715;SDS011;6422;49.938;9.124;2023-04-08T07:33:16;5.82;;;3.00;;
12715;SDS011;6422;49.938;9.124;2023-04-08T07:35:41;3.53;;;2.13;;
12715;SDS011;6422;49.938;9.124;2023-04-08T07:38:06;12.32;;;2.55;;
12715;SDS011;6422;49.938;9.124;2023-04-08T07:40:35;4.77;;;3.00;;
12715;SDS011;6422;49.938;9.124;2023-04-08T07:43:00;10.07;;;4.00;;
12715;SDS011;6422;49.938;9.124;2023-04-08T07:45:25;5.35;;;3.28;;
12715;SDS011;6422;49.938;9.124;2023-04-08T07:47:50;6.10;;;3.17;;
12715;SDS011;6422;49.938;9.124;2023-04-08T07:50:16;6.60;;;4.10;;
12715;SDS011;6422;49.938;9.124;2023-04-08T07:52:41;6.70;;;3.90;;
12715;SDS011;6422;49.938;9.124;2023-04-08T07:55:06;7.20;;;2.42;;
12715;SDS011;6422;49.938;9.124;2023-04-08T07:57:32;5.07;;;3.27;;
12715;SDS011;6422;49.938;9.124;2023-04-08T07:59:57;4.00;;;3.27;;
12715;SDS011;6422;49.938;9.124;2023-04-08T08:02:22;6.73;;;2.87;;
12715;SDS011;6422;49.938;9.124;2023-04-08T08:04:47;5.30;;;2.90;;
12715;SDS011;6422;49.938;9.124;2023-04-08T08:07:12;12.53;;;3.70;;
12715;SDS011;6422;49.938;9.124;2023-04-08T08:09:38;3.80;;;2.23;;
12715;SDS011;6422;49.938;9.124;2023-04-08T08:12:03;4.53;;;2.43;;
12715;SDS011;6422;49.938;9.124;2023-04-08T08:14:28;5.75;;;3.15;;
12715;SDS011;6422;49.938;9.124;2023-04-08T08:16:53;4.57;;;2.87;;
12715;SDS011;6422;49.938;9.124;2023-04-08T08:19:19;8.68;;;2.90;;
12715;SDS011;6422;49.938;9.124;2023-04-08T08:21:44;5.90;;;3.43;;
12715;SDS011;6422;49.938;9.124;2023-04-08T08:24:09;5.57;;;3.17;;
12715;SDS011;6422;49.938;9.124;2023-04-08T08:26:34;6.83;;;3.47;;
12715;SDS011;6422;49.938;9.124;2023-04-08T08:29:03;2.30;;;2.10;;
12715;SDS011;6422;49.938;9.124;2023-04-08T08:31:28;5.60;;;2.00;;
12715;SDS011;6422;49.938;9.124;2023-04-08T08:33:54;3.47;;;2.53;;
12715;SDS011;6422;49.938;9.124;2023-04-08T08:36:19;3.37;;;2.33;;
12715;SDS011;6422;49.938;9.124;2023-04-08T08:38:44;2.83;;;2.00;;
12715;SDS011;6422;49.938;9.124;2023-04-08T08:41:10;4.50;;;2.17;;
12715;SDS011;6422;49.938;9.124;2023-04-08T08:43:35;1.73;;;1.60;;
12715;SDS011;6422;49.938;9.124;2023-04-08T08:46:01;1.67;;;1.50;;
12715;SDS011;6422;49.938;9.124;2023-04-08T08:48:27;2.60;;;2.37;;
12715;SDS011;6422;49.938;9.124;2023-04-08T08:50:52;3.63;;;2.03;;
12715;SDS011;6422;49.938;9.124;2023-04-08T08:53:18;2.63;;;1.70;;
12715;SDS011;6422;49.938;9.124;2023-04-08T08:55:44;2.53;;;2.10;;
12715;SDS011;6422;49.938;9.124;2023-04-08T08:58:09;5.40;;;2.30;;
12715;SDS011;6422;49.938;9.124;2023-04-08T09:03:12;2.47;;;1.53;;
12715;SDS011;6422;49.938;9.124;2023-04-08T09:05:51;3.90;;;2.13;;
12715;SDS011;6422;49.938;9.124;2023-04-08T09:08:23;2.97;;;1.57;;
12715;SDS011;6422;49.938;9.124;2023-04-08T09:10:49;1.80;;;1.70;;
12715;SDS011;6422;49.938;9.124;2023-04-08T09:13:14;4.40;;;1.63;;
12715;SDS011;6422;49.938;9.124;2023-04-08T09:18:24;5.80;;;1.70;;
12715;SDS011;6422;49.938;9.124;2023-04-08T09:20:53;1.10;;;0.90;;
12715;SDS011;6422;49.938;9.124;2023-04-08T09:23:18;3.13;;;1.80;;
12715;SDS011;6422;49.938;9.124;2023-04-08T09:25:43;2.13;;;1.77;;
12715;SDS011;6422;49.938;9.124;2023-04-08T09:28:18;1.35;;;1.17;;
12715;SDS011;6422;49.938;9.124;2023-04-08T09:30:44;2.07;;;1.87;;
12715;SDS011;6422;49.938;9.124;2023-04-08T09:33:09;1.50;;;1.40;;
12715;SDS011;6422;49.938;9.124;2023-04-08T09:35:35;3.53;;;2.40;;
12715;SDS011;6422;49.938;9.124;2023-04-08T09:38:00;8.13;;;2.00;;
12715;SDS011;6422;49.938;9.124;2023-04-08T09:40:26;6.40;;;1.83;;
12715;SDS011;6422;49.938;9.124;2023-04-08T09:42:51;7.50;;;3.63;;
12715;SDS011;6422;49.938;9.124;2023-04-08T09:45:18;14.93;;;2.23;;
12715;SDS011;6422;49.938;9.124;2023-04-08T09:47:52;5.30;;;2.63;;
12715;SDS011;6422;49.938;9.124;2023-04-08T09:50:22;2.30;;;1.73;;
12715;SDS011;6422;49.938;9.124;2023-04-08T09:52:49;1.97;;;1.77;;
12715;SDS011;6422;49.938;9.124;2023-04-08T09:55:20;2.30;;;1.70;;
12715;SDS011;6422;49.938;9.124;2023-04-08T09:57:57;2.07;;;1.87;;
12715;SDS011;6422;49.938;9.124;2023-04-08T10:00:24;3.43;;;1.50;;
12715;SDS011;6422;49.938;9.124;2023-04-08T10:02:53;3.67;;;2.37;;
12715;SDS011;6422;49.938;9.124;2023-04-08T10:05:20;2.80;;;2.00;;
12715;SDS011;6422;49.938;9.124;2023-04-08T10:07:46;7.90;;;1.83;;
12715;SDS011;6422;49.938;9.124;2023-04-08T10:10:12;2.27;;;1.47;;
12715;SDS011;6422;49.938;9.124;2023-04-08T10:12:37;2.27;;;1.90;;
12715;SDS011;6422;49.938;9.124;2023-04-08T10:17:50;3.03;;;1.90;;
12715;SDS011;6422;49.938;9.124;2023-04-08T10:23:00;2.23;;;1.90;;
12715;SDS011;6422;49.938;9.124;2023-04-08T10:25:28;3.70;;;2.00;;
12715;SDS011;6422;49.938;9.124;2023-04-08T10:27:57;4.00;;;2.23;;
12715;SDS011;6422;49.938;9.124;2023-04-08T10:32:57;2.47;;;2.03;;
12715;SDS011;6422;49.938;9.124;2023-04-08T10:35:30;4.20;;;2.23;;
12715;SDS011;6422;49.938;9.124;2023-04-08T10:37:56;5.63;;;2.10;;
12715;SDS011;6422;49.938;9.124;2023-04-08T10:40:22;2.90;;;2.00;;
12715;SDS011;6422;49.938;9.124;2023-04-08T10:42:53;6.27;;;2.87;;
12715;SDS011;6422;49.938;9.124;2023-04-08T10:45:18;10.50;;;2.37;;
12715;SDS011;6422;49.938;9.124;2023-04-08T10:47:43;2.43;;;1.97;;
12715;SDS011;6422;49.938;9.124;2023-04-08T10:50:12;2.37;;;2.07;;
12715;SDS011;6422;49.938;9.124;2023-04-08T10:52:50;3.23;;;1.80;;
12715;SDS011;6422;49.938;9.124;2023-04-08T10:55:21;4.07;;;2.20;;
12715;SDS011;6422;49.938;9.124;2023-04-08T10:57:47;3.60;;;2.07;;
12715;SDS011;6422;49.938;9.124;2023-04-08T11:00:16;3.00;;;1.70;;
12715;SDS011;6422;49.938;9.124;2023-04-08T11:02:42;2.63;;;1.80;;
12715;SDS011;6422;49.938;9.124;2023-04-08T11:05:08;4.78;;;2.03;;
12715;SDS011;6422;49.938;9.124;2023-04-08T11:07:38;2.60;;;1.80;;
12715;SDS011;6422;49.938;9.124;2023-04-08T11:10:04;4.67;;;2.30;;
12715;SDS011;6422;49.938;9.124;2023-04-08T11:12:30;5.07;;;3.07;;
12715;SDS011;6422;49.938;9.124;2023-04-08T11:14:56;3.67;;;1.90;;
12715;SDS011;6422;49.938;9.124;2023-04-08T11:17:21;7.83;;;2.50;;
12715;SDS011;6422;49.938;9.124;2023-04-08T11:19:46;4.30;;;2.60;;
12715;SDS011;6422;49.938;9.124;2023-04-08T11:22:12;4.60;;;2.23;;
12715;SDS011;6422;49.938;9.124;2023-04-08T11:24:37;6.23;;;3.87;;
12715;SDS011;6422;49.938;9.124;2023-04-08T11:27:03;2.80;;;1.77;;
12715;SDS011;6422;49.938;9.124;2023-04-08T11:29:30;3.70;;;2.03;;
12715;SDS011;6422;49.938;9.124;2023-04-08T11:31:55;3.07;;;1.90;;
12715;SDS011;6422;49.938;9.124;2023-04-08T11:34:21;3.33;;;1.97;;
12715;SDS011;6422;49.938;9.124;2023-04-08T11:36:46;2.77;;;2.40;;
12715;SDS011;6422;49.938;9.124;2023-04-08T11:39:11;5.27;;;2.20;;
12715;SDS011;6422;49.938;9.124;2023-04-08T11:41:37;3.92;;;2.30;;
12715;SDS011;6422;49.938;9.124;2023-04-08T11:44:05;7.03;;;2.33;;
12715;SDS011;6422;49.938;9.124;2023-04-08T11:46:31;2.50;;;1.73;;
12715;SDS011;6422;49.938;9.124;2023-04-08T11:48:57;4.97;;;2.40;;
12715;SDS011;6422;49.938;9.124;2023-04-08T11:51:22;3.43;;;2.53;;
12715;SDS011;6422;49.938;9.124;2023-04-08T11:53:48;3.17;;;2.33;;
12715;SDS011;6422;49.938;9.124;2023-04-08T11:56:17;3.80;;;1.70;;
12715;SDS011;6422;49.938;9.124;2023-04-08T11:58:42;2.43;;;1.53;;
12715;SDS011;6422;49.938;9.124;2023-04-08T12:01:07;11.65;;;3.10;;
12715;SDS011;6422;49.938;9.124;2023-04-08T12:03:33;2.13;;;1.63;;
12715;SDS011;6422;49.938;9.124;2023-04-08T12:05:58;3.03;;;1.53;;
12715;SDS011;6422;49.938;9.124;2023-04-08T12:08:23;3.23;;;1.70;;
12715;SDS011;6422;49.938;9.124;2023-04-08T12:10:48;2.00;;;1.60;;
12715;SDS011;6422;49.938;9.124;2023-04-08T12:13:14;2.43;;;2.10;;
12715;SDS011;6422;49.938;9.124;2023-04-08T12:15:39;2.40;;;1.60;;
12715;SDS011;6422;49.938;9.124;2023-04-08T12:18:05;2.90;;;1.83;;
12715;SDS011;6422;49.938;9.124;2023-04-08T12:20:30;3.23;;;2.50;;
12715;SDS011;6422;49.938;9.124;2023-04-08T12:22:55;3.65;;;2.22;;
12715;SDS011;6422;49.938;9.124;2023-04-08T12:25:20;6.10;;;2.78;;
12715;SDS011;6422;49.938;9.124;2023-04-08T12:27:45;2.23;;;1.40;;
12715;SDS011;6422;49.938;9.124;2023-04-08T12:30:10;2.77;;;1.77;;
12715;SDS011;6422;49.938;9.124;2023-04-08T12:32:36;2.40;;;1.90;;
12715;SDS011;6422;49.938;9.124;2023-04-08T12:35:01;4.60;;;2.30;;
12715;SDS011;6422;49.938;9.124;2023-04-08T12:37:26;2.00;;;1.40;;
12715;SDS011;6422;49.938;9.124;2023-04-08T12:39:51;3.23;;;1.70;;
12715;SDS011;6422;49.938;9.124;2023-04-08T12:42:17;2.33;;;1.50;;
12715;SDS011;6422;49.938;9.124;2023-04-08T12:44:42;3.40;;;1.73;;
12715;SDS011;6422;49.938;9.124;2023-04-08T12:47:07;2.13;;;1.47;;
12715;SDS011;6422;49.938;9.124;2023-04-08T12:49:32;3.67;;;1.65;;
12715;SDS011;6422;49.938;9.124;2023-04-08T12:51:57;1.45;;;1.15;;
12715;SDS011;6422;49.938;9.124;2023-04-08T12:54:22;2.63;;;1.53;;
12715;SDS011;6422;49.938;9.124;2023-04-08T12:56:47;5.07;;;1.65;;
12715;SDS011;6422;49.938;9.124;2023-04-08T12:59:13;2.93;;;1.73;;
12715;SDS011;6422;49.938;9.124;2023-04-08T13:01:38;1.83;;;1.50;;
12715;SDS011;6422;49.938;9.124;2023-04-08T13:04:03;3.03;;;1.40;;
12715;SDS011;6422;49.938;9.124;2023-04-08T13:06:28;2.90;;;1.33;;
12715;SDS011;6422;49.938;9.124;2023-04-08T13:08:53;4.53;;;1.55;;
12715;SDS011;6422;49.938;9.124;2023-04-08T13:11:19;3.50;;;1.90;;
12715;SDS011;6422;49.938;9.124;2023-04-08T13:13:45;2.40;;;1.37;;
12715;SDS011;6422;49.938;9.124;2023-04-08T13:16:11;1.77;;;1.20;;
12715;SDS011;6422;49.938;9.124;2023-04-08T13:18:38;2.40;;;1.53;;
12715;SDS011;6422;49.938;9.124;2023-04-08T13:21:03;2.10;;;1.17;;
12715;SDS011;6422;49.938;9.124;2023-04-08T13:23:28;2.57;;;1.60;;
12715;SDS011;6422;49.938;9.124;2023-04-08T13:25:53;2.80;;;1.43;;
12715;SDS011;6422;49.938;9.124;2023-04-08T13:28:18;2.28;;;1.45;;
12715;SDS011;6422;49.938;9.124;2023-04-08T13:30:44;3.23;;;1.63;;
12715;SDS011;6422;49.938;9.124;2023-04-08T13:33:09;2.33;;;1.65;;
12715;SDS011;6422;49.938;9.124;2023-04-08T13:35:34;4.23;;;1.93;;
12715;SDS011;6422;49.938;9.124;2023-04-08T13:38:00;6.30;;;2.50;;
12715;SDS011;6422;49.938;9.124;2023-04-08T13:40:25;3.33;;;2.33;;
12715;SDS011;6422;49.938;9.124;2023-04-08T13:42:51;2.00;;;1.50;;
12715;SDS011;6422;49.938;9.124;2023-04-08T13:45:16;3.13;;;1.77;;
12715;SDS011;6422;49.938;9.124;2023-04-08T13:47:42;5.07;;;2.53;;
12715;SDS011;6422;49.938;9.124;2023-04-08T13:50:07;2.20;;;1.33;;
12715;SDS011;6422;49.938;9.124;2023-04-08T13:52:32;1.90;;;1.57;;
12715;SDS011;6422;49.938;9.124;2023-04-08T13:54:58;9.13;;;2.57;;
12715;SDS011;6422;49.938;9.124;2023-04-08T13:57:23;6.67;;;3.17;;
12715;SDS011;6422;49.938;9.124;2023-04-08T13:59:48;5.07;;;1.67;;
12715;SDS011;6422;49.938;9.124;2023-04-08T14:02:13;3.07;;;2.00;;
12715;SDS011;6422;49.938;9.124;2023-04-08T14:04:38;2.80;;;2.07;;
12715;SDS011;6422;49.938;9.124;2023-04-08T14:07:04;3.35;;;1.50;;
12715;SDS011;6422;49.938;9.124;2023-04-08T14:09:29;2.50;;;1.43;;
12715;SDS011;6422;49.938;9.124;2023-04-08T14:11:54;4.83;;;2.87;;
12715;SDS011;6422;49.938;9.124;2023-04-08T14:14:20;3.23;;;2.10;;
12715;SDS011;6422;49.938;9.124;2023-04-08T14:16:45;6.03;;;1.40;;
12715;SDS011;6422;49.938;9.124;2023-04-08T14:19:11;2.60;;;1.83;;
12715;SDS011;6422;49.938;9.124;2023-04-08T14:21:36;3.13;;;1.73;;
12715;SDS011;6422;49.938;9.124;2023-04-08T14:24:02;4.20;;;2.00;;
12715;SDS011;6422;49.938;9.124;2023-04-08T14:26:27;2.43;;;1.73;;
12715;SDS011;6422;49.938;9.124;2023-04-08T14:28:52;2.03;;;1.30;;
12715;SDS011;6422;49.938;9.124;2023-04-08T14:31:17;3.07;;;2.17;;
12715;SDS011;6422;49.938;9.124;2023-04-08T14:33:43;2.40;;;1.60;;
12715;SDS011;6422;49.938;9.124;2023-04-08T14:36:08;2.70;;;1.83;;
12715;SDS011;6422;49.938;9.124;2023-04-08T14:38:34;3.47;;;1.40;;
12715;SDS011;6422;49.938;9.124;2023-04-08T14:40:59;3.07;;;2.23;;
12715;SDS011;6422;49.938;9.124;2023-04-08T14:43:24;1.70;;;1.33;;
12715;SDS011;6422;49.938;9.124;2023-04-08T14:45:49;1.97;;;1.23;;
12715;SDS011;6422;49.938;9.124;2023-04-08T14:48:15;2.83;;;1.87;;
12715;SDS011;6422;49.938;9.124;2023-04-08T14:50:40;1.43;;;1.13;;
12715;SDS011;6422;49.938;9.124;2023-04-08T14:53:05;3.30;;;1.63;;
12715;SDS011;6422;49.938;9.124;2023-04-08T14:55:31;7.50;;;1.80;;
12715;SDS011;6422;49.938;9.124;2023-04-08T14:57:56;2.67;;;1.73;;
12715;SDS011;6422;49.938;9.124;2023-04-08T15:00:22;1.80;;;1.20;;
12715;SDS011;6422;49.938;9.124;2023-04-08T15:02:47;3.20;;;1.97;;
12715;SDS011;6422;49.938;9.124;2023-04-08T15:05:12;2.30;;;1.85;;
12715;SDS011;6422;49.938;9.124;2023-04-08T15:07:37;6.80;;;1.63;;
12715;SDS011;6422;49.938;9.124;2023-04-08T15:10:03;1.63;;;1.17;;